Time;durP1;ratioP1;P1;durP2;ratioP2;P2;SDS_P1;SDS_P2;PMS_P1;PMS_P2;Temp;Humidity;BMP_temperature;BMP_pressure;BME280_temperature;BME280_humidity;BME280_pressure;Samples;Min_cycle;Max_cycle;Signal;HPM_P1;HPM_P2
2022/01/10 00:00:51;;;;;;;47.80;22.42;;;;;;;5.61;58.17;97190.50;4486847;32;20481;-78
2022/01/10 00:03:19;;;;;;;46.97;21.23;;;;;;;4.90;59.77;97188.75;4486494;32;20631;-78
2022/01/10 00:05:47;;;;;;;50.45;22.08;;;;;;;5.64;57.82;97185.28;4486765;32;20127;-78
2022/01/10 00:08:14;;;;;;;49.10;20.73;;;;;;;5.76;56.48;97186.56;4486805;32;20152;-78
2022/01/10 00:10:43;;;;;;;46.63;21.95;;;;;;;5.15;58.13;97191.31;4486650;32;20103;-78
2022/01/10 00:13:10;;;;;;;51.80;23.08;;;;;;;5.88;56.31;97190.38;4486473;32;20120;-78
2022/01/10 00:15:37;;;;;;;47.78;23.10;;;;;;;5.54;57.24;97190.78;4486569;32;20170;-78
2022/01/10 00:18:05;;;;;;;45.95;22.15;;;;;;;5.74;56.90;97193.41;4486178;32;20431;-78
2022/01/10 00:20:32;;;;;;;50.70;22.87;;;;;;;6.35;54.35;97194.50;4472608;32;20119;-78
2022/01/10 00:22:59;;;;;;;46.25;20.02;;;;;;;5.89;55.87;97200.56;4488431;32;20099;-78
2022/01/10 00:25:26;;;;;;;46.00;19.92;;;;;;;5.98;55.31;97207.94;4487909;32;20443;-78
2022/01/10 00:27:53;;;;;;;47.15;21.65;;;;;;;6.38;53.99;97220.03;4488376;32;20499;-78
2022/01/10 00:30:22;;;;;;;45.10;20.23;;;;;;;6.73;53.01;97206.72;4474391;32;20104;-78
2022/01/10 00:32:49;;;;;;;46.00;20.62;;;;;;;6.53;53.42;97213.47;4487931;32;20144;-78
2022/01/10 00:35:17;;;;;;;43.50;19.05;;;;;;;6.28;54.45;97210.22;4488390;32;20100;-78
2022/01/10 00:37:44;;;;;;;45.08;18.17;;;;;;;5.54;56.35;97203.59;4488348;32;20096;-78
2022/01/10 00:40:13;;;;;;;47.00;19.85;;;;;;;5.29;56.55;97211.28;4488045;32;20087;-78
2022/01/10 00:42:40;;;;;;;39.47;18.35;;;;;;;5.51;56.17;97214.75;4488348;32;20076;-78
2022/01/10 00:45:17;;;;;;;43.60;19.23;;;;;;;5.93;55.17;97212.37;4488444;32;20093;-78
2022/01/10 00:47:49;;;;;;;43.20;20.02;;;;;;;5.79;55.40;97217.13;4488581;32;20139;-78
2022/01/10 00:50:16;;;;;;;46.40;19.92;;;;;;;6.42;53.54;97220.75;4488529;32;20123;-78
2022/01/10 00:52:44;;;;;;;44.97;18.05;;;;;;;5.85;55.03;97228.88;4487900;32;20085;-78
2022/01/10 00:55:11;;;;;;;44.45;19.65;;;;;;;6.24;53.78;97224.84;4488248;32;20097;-78
2022/01/10 00:57:38;;;;;;;45.00;20.37;;;;;;;5.51;56.11;97224.97;4488258;32;20570;-78
2022/01/10 01:00:08;;;;;;;43.25;18.80;;;;;;;5.39;56.54;97228.81;4487885;32;20183;-78
2022/01/10 01:02:35;;;;;;;42.47;19.48;;;;;;;6.38;53.64;97227.72;4488351;32;20132;-78
2022/01/10 01:05:06;;;;;;;42.65;19.98;;;;;;;5.61;55.57;97236.56;4488292;32;20100;-78
2022/01/10 01:07:34;;;;;;;45.35;19.67;;;;;;;5.98;54.50;97241.22;4487956;32;20153;-78
2022/01/10 01:10:25;;;;;;;44.13;19.33;;;;;;;5.30;56.62;97248.75;4473848;32;20180;-78
2022/01/10 01:13:01;;;;;;;47.45;19.42;;;;;;;5.72;55.95;97241.28;4488061;32;20481;-78
2022/01/10 01:15:33;;;;;;;44.92;19.40;;;;;;;7.02;51.64;97252.50;4488010;32;20112;-78
2022/01/10 01:26:03;;;;;;;40.67;18.67;;;;;;;6.94;51.87;97241.72;4456818;32;20511;-78
2022/01/10 01:28:31;;;;;;;42.13;19.92;;;;;;;7.17;51.33;97233.06;4455187;32;20503;-78
2022/01/10 01:30:58;;;;;;;46.50;20.58;;;;;;;7.27;50.95;97236.09;4455764;32;20103;-78
2022/01/10 01:33:26;;;;;;;51.35;23.00;;;;;;;7.04;51.66;97234.50;4455921;32;20150;-78
2022/01/10 01:35:53;;;;;;;47.45;21.62;;;;;;;7.10;51.57;97237.62;4455425;32;20105;-78
2022/01/10 01:38:20;;;;;;;46.58;22.77;;;;;;;6.98;51.25;97235.56;4456901;32;20531;-78
2022/01/10 01:40:56;;;;;;;47.78;23.48;;;;;;;7.50;50.24;97243.63;4457013;32;20080;-78
2022/01/10 01:43:23;;;;;;;48.05;21.95;;;;;;;7.89;49.25;97235.91;4456469;32;20477;-78
2022/01/10 01:45:51;;;;;;;46.72;21.48;;;;;;;7.77;49.19;97239.03;4455690;32;20101;-78
2022/01/10 01:48:18;;;;;;;49.65;21.70;;;;;;;8.13;48.16;97242.50;4456528;32;20504;-78
2022/01/10 01:50:45;;;;;;;47.03;20.83;;;;;;;7.99;48.74;97246.62;4456988;32;20570;-78
2022/01/10 01:53:12;;;;;;;46.67;21.55;;;;;;;8.14;48.03;97240.78;4456757;32;20111;-78
2022/01/10 01:55:39;;;;;;;45.83;21.98;;;;;;;8.05;48.42;97244.59;4455308;32;20116;-78
2022/01/10 01:58:06;;;;;;;47.40;21.75;;;;;;;7.70;49.14;97245.34;4456729;32;20145;-78
2022/01/10 02:00:34;;;;;;;45.22;21.27;;;;;;;6.98;51.16;97240.69;4456828;32;20238;-78
2022/01/10 02:03:01;;;;;;;46.97;22.27;;;;;;;7.13;51.05;97244.38;4456326;32;20101;-78
2022/01/10 02:05:29;;;;;;;47.03;21.17;;;;;;;5.90;55.08;97234.66;4456913;32;20089;-78
2022/01/10 02:07:56;;;;;;;44.30;21.40;;;;;;;5.86;55.42;97239.06;4455459;32;20128;-78
2022/01/10 02:10:23;;;;;;;50.33;22.42;;;;;;;6.19;54.07;97239.56;4456356;32;20167;-78
2022/01/10 02:12:50;;;;;;;42.97;20.98;;;;;;;6.65;53.03;97241.16;4456635;32;20561;-78
2022/01/10 02:15:58;;;;;;;46.70;21.33;;;;;;;6.88;51.98;97242.78;4456611;32;20116;-78
2022/01/10 02:18:20;;;;;;;46.40;20.50;;;;;;;7.07;51.56;97247.19;4454848;32;20115;-78
2022/01/10 02:20:47;;;;;;;46.80;20.77;;;;;;;7.41;50.42;97244.03;4455614;32;20085;-78
2022/01/10 02:23:15;;;;;;;48.00;21.33;;;;;;;8.33;47.46;97248.47;4456481;32;20161;-78
2022/01/10 02:25:43;;;;;;;46.10;20.75;;;;;;;8.25;47.40;97243.69;4486508;32;20084;-78
2022/01/10 02:28:11;;;;;;;46.70;19.73;;;;;;;7.91;48.46;97249.53;4473685;32;20655;-78
2022/01/10 02:30:39;;;;;;;47.10;22.40;;;;;;;7.58;49.25;97244.16;4473486;32;20171;-78
2022/01/10 02:33:06;;;;;;;53.87;21.60;;;;;;;7.52;49.27;97244.41;4473546;32;20143;-78
2022/01/10 02:35:40;;;;;;;44.20;20.98;;;;;;;7.63;49.05;97244.75;4473641;32;20115;-78
2022/01/10 02:38:08;;;;;;;47.85;22.00;;;;;;;7.75;48.78;97246.78;4487314;32;20156;-78
2022/01/10 02:40:35;;;;;;;46.05;21.85;;;;;;;7.75;48.82;97246.78;4487887;32;20139;-78
2022/01/10 02:43:07;;;;;;;43.67;20.15;;;;;;;7.95;48.57;97255.34;4487669;32;20131;-78
2022/01/10 02:45:34;;;;;;;46.58;19.98;;;;;;;7.97;48.51;97249.22;4472900;32;20096;-78
2022/01/10 02:48:02;;;;;;;45.28;21.87;;;;;;;8.35;47.17;97249.25;4487894;32;20212;-78
2022/01/10 02:50:29;;;;;;;44.45;21.37;;;;;;;8.02;47.95;97249.87;4474200;32;20103;-78
2022/01/10 02:52:56;;;;;;;48.72;23.55;;;;;;;7.96;48.20;97252.69;4474145;32;20473;-78
2022/01/10 02:55:23;;;;;;;47.72;20.92;;;;;;;7.96;48.16;97250.13;4488562;32;20160;-78
2022/01/10 02:57:50;;;;;;;47.28;22.00;;;;;;;8.12;47.83;97258.00;4488008;32;20092;-78
2022/01/10 03:00:20;;;;;;;46.03;20.40;;;;;;;8.34;47.33;97257.84;4487413;32;20056;-78
2022/01/10 03:02:50;;;;;;;43.60;20.00;;;;;;;8.23;47.45;97263.47;4487320;32;20510;-78
2022/01/10 03:05:18;;;;;;;45.55;21.73;;;;;;;9.38;44.09;97276.84;4473754;32;20127;-79
2022/01/10 03:07:46;;;;;;;47.92;21.42;;;;;;;8.11;46.98;97257.16;4487182;32;20092;-78
2022/01/10 03:10:14;;;;;;;44.22;21.00;;;;;;;8.36;46.98;97266.34;4473419;32;20105;-79
2022/01/10 03:12:41;;;;;;;46.03;21.75;;;;;;;8.14;47.31;97271.59;4473030;32;20446;-78
2022/01/10 03:15:08;;;;;;;44.00;20.42;;;;;;;7.79;48.45;97268.88;4487510;32;20490;-78
2022/01/10 03:17:36;;;;;;;44.92;21.95;;;;;;;7.61;48.91;97272.25;4487342;32;20100;-78
2022/01/10 03:20:05;;;;;;;47.10;21.62;;;;;;;7.66;49.08;97277.19;4486745;32;20454;-79
2022/01/10 03:22:32;;;;;;;47.58;23.05;;;;;;;7.72;48.96;97274.34;4487202;32;20553;-78
2022/01/10 03:25:00;;;;;;;44.05;22.23;;;;;;;7.54;49.22;97283.66;4486850;32;20378;-78
2022/01/10 03:27:27;;;;;;;46.55;21.15;;;;;;;7.92;48.46;97278.59;4486833;32;20412;-78
2022/01/10 03:29:54;;;;;;;44.60;21.87;;;;;;;7.04;50.52;97275.53;4486959;32;20481;-78
2022/01/10 03:32:21;;;;;;;45.42;21.65;;;;;;;7.49;49.72;97277.91;4472965;32;20148;-78
2022/01/10 03:34:48;;;;;;;44.50;21.73;;;;;;;7.63;49.56;97282.44;4486722;32;20100;-78
2022/01/10 03:37:15;;;;;;;43.35;20.20;;;;;;;7.68;49.55;97288.22;4472816;32;20116;-78
2022/01/10 03:39:42;;;;;;;45.72;20.52;;;;;;;7.81;49.47;97287.63;4486874;32;20396;-78
2022/01/10 03:42:10;;;;;;;43.10;20.42;;;;;;;7.81;49.39;97285.06;4472640;32;20163;-78
2022/01/10 03:44:37;;;;;;;44.83;20.90;;;;;;;8.01;48.87;97301.31;4472731;32;20105;-78
2022/01/10 03:47:05;;;;;;;46.25;20.95;;;;;;;7.99;48.88;97290.28;4486971;32;20092;-78
2022/01/10 03:49:32;;;;;;;44.67;21.33;;;;;;;7.82;49.33;97297.00;4486380;32;20433;-78
2022/01/10 03:51:59;;;;;;;44.55;20.88;;;;;;;7.80;48.77;97306.50;4472717;32;20395;-78
2022/01/10 03:54:26;;;;;;;40.47;20.05;;;;;;;8.08;48.50;97297.56;4486740;32;20084;-78
2022/01/10 03:56:53;;;;;;;45.47;20.25;;;;;;;8.31;47.89;97306.84;4487323;32;20156;-78
2022/01/10 03:59:20;;;;;;;49.88;24.08;;;;;;;8.36;47.97;97304.91;4488636;32;20141;-78
2022/01/10 04:01:50;;;;;;;47.28;22.08;;;;;;;8.19;48.47;97304.78;4488487;32;20441;-78
2022/01/10 04:04:17;;;;;;;48.50;22.75;;;;;;;8.18;48.81;97311.66;4488713;32;20097;-78
2022/01/10 04:06:44;;;;;;;55.03;23.90;;;;;;;8.23;48.64;97309.75;4474730;32;20753;-78
2022/01/10 04:09:11;;;;;;;54.67;23.92;;;;;;;8.38;48.48;97306.50;4474009;32;20084;-78
2022/01/10 04:11:38;;;;;;;54.83;24.08;;;;;;;8.17;48.90;97309.16;4488745;32;20148;-78
2022/01/10 04:14:05;;;;;;;52.60;23.15;;;;;;;8.29;48.77;97311.19;4488455;32;20189;-78
2022/01/10 04:16:32;;;;;;;48.58;21.83;;;;;;;8.46;48.51;97313.88;4488186;32;20143;-78
2022/01/10 04:18:59;;;;;;;43.45;20.35;;;;;;;8.56;48.34;97312.53;4488426;32;20155;-78
2022/01/10 04:21:26;;;;;;;47.42;20.65;;;;;;;8.58;48.33;97315.88;4488658;32;20549;-78
2022/01/10 04:23:53;;;;;;;33.60;16.48;;;;;;;8.71;48.08;97318.69;4471097;32;20113;-78
2022/01/10 04:26:21;;;;;;;36.03;16.42;;;;;;;8.10;49.89;97321.47;4472985;32;20160;-78
2022/01/10 04:28:48;;;;;;;37.72;15.95;;;;;;;7.68;50.75;97332.72;4472761;32;20454;-78
2022/01/10 04:31:15;;;;;;;33.25;15.40;;;;;;;7.99;50.09;97331.41;4472629;32;20081;-78
2022/01/10 04:33:42;;;;;;;36.22;15.82;;;;;;;6.67;54.98;97333.37;4472792;32;20439;-78
2022/01/10 04:36:09;;;;;;;33.45;14.43;;;;;;;6.22;56.09;97325.69;4472942;32;20156;-78
2022/01/10 04:38:36;;;;;;;36.65;16.90;;;;;;;4.69;61.51;97330.84;4471132;32;20106;-78
2022/01/10 04:41:03;;;;;;;42.15;18.23;;;;;;;6.06;57.63;97336.53;4472780;32;20583;-78
2022/01/10 04:43:30;;;;;;;45.47;21.37;;;;;;;6.17;57.16;97332.72;4472871;32;20427;-78
2022/01/10 04:46:00;;;;;;;46.40;21.05;;;;;;;6.71;55.15;97334.97;4472678;32;20519;-78
2022/01/10 04:48:27;;;;;;;47.55;22.33;;;;;;;7.36;53.11;97341.75;4472769;32;20155;-79
2022/01/10 04:53:21;;;;;;;45.72;21.30;;;;;;;8.79;47.42;97350.03;4471562;32;20113;-78
2022/01/10 04:55:48;;;;;;;46.60;22.23;;;;;;;8.65;47.57;97358.41;4472808;32;20569;-78
2022/01/10 04:58:15;;;;;;;48.47;21.62;;;;;;;8.68;47.29;97362.56;4472379;32;20104;-78
2022/01/10 05:00:42;;;;;;;47.83;22.02;;;;;;;8.27;48.16;97367.81;4472915;32;20129;-78
2022/01/10 05:03:10;;;;;;;46.78;21.62;;;;;;;7.80;49.27;97363.00;4472602;32;20105;-78
2022/01/10 05:05:37;;;;;;;47.75;22.23;;;;;;;7.61;50.38;97363.84;4472378;32;20116;-78
2022/01/10 05:08:05;;;;;;;46.80;20.88;;;;;;;7.52;50.41;97368.44;4472512;32;20152;-78
2022/01/10 05:10:32;;;;;;;41.17;19.10;;;;;;;7.64;49.72;97372.22;4471409;32;20157;-78
2022/01/10 05:12:59;;;;;;;;;;;;;;;7.35;51.32;97376.00;4472526;32;20452;-78
2022/01/10 05:15:26;;;;;;;47.40;20.77;;;;;;;7.94;50.13;97387.25;4472836;32;19983;-78
2022/01/10 05:17:52;;;;;;;;;;;;;;;7.62;50.73;97384.31;4472753;32;20189;-77
2022/01/10 05:20:19;;;;;;;46.03;20.25;;;;;;;6.87;52.59;97378.78;4466459;32;188100;-78
2022/01/10 05:22:46;;;;;;;43.45;19.80;;;;;;;7.69;51.24;97385.72;4472490;32;20147;-78
2022/01/10 05:25:14;;;;;;;44.92;20.37;;;;;;;7.49;51.29;97394.25;4484343;32;20096;-78
2022/01/10 05:27:41;;;;;;;42.47;19.85;;;;;;;7.64;51.13;97397.91;4487963;32;20098;-78
2022/01/10 05:30:08;;;;;;;43.92;20.48;;;;;;;8.00;50.51;97407.56;4488012;32;20144;-78
2022/01/10 05:32:35;;;;;;;43.50;19.10;;;;;;;8.48;49.05;97409.75;4474179;32;20108;-78
2022/01/10 05:35:03;;;;;;;42.35;18.08;;;;;;;8.90;47.32;97403.56;4460844;32;20108;-78
2022/01/10 05:37:30;;;;;;;41.50;19.10;;;;;;;8.69;48.03;97410.53;4473917;32;20080;-78
2022/01/10 05:39:57;;;;;;;44.00;19.40;;;;;;;8.54;47.97;97413.78;4487656;32;20124;-78
2022/01/10 05:42:24;;;;;;;39.70;18.67;;;;;;;9.07;46.74;97410.50;4488155;32;20105;-78
2022/01/10 05:44:51;;;;;;;42.33;19.05;;;;;;;8.40;48.43;97417.81;4488277;32;20152;-78
2022/01/10 05:47:19;;;;;;;38.08;18.50;;;;;;;8.37;48.33;97409.37;4487899;32;20152;-78
2022/01/10 05:49:48;;;;;;;43.03;19.10;;;;;;;9.14;46.58;97415.28;4473840;32;20144;-79
2022/01/10 05:52:15;;;;;;;43.03;18.58;;;;;;;8.97;47.32;97418.66;4488001;32;20096;-78
2022/01/10 05:54:42;;;;;;;42.75;18.90;;;;;;;8.34;48.56;97417.22;4487848;32;20418;-78
2022/01/10 05:57:09;;;;;;;38.67;18.10;;;;;;;8.30;49.13;97413.12;4487910;32;20084;-78
2022/01/10 05:59:36;;;;;;;40.80;17.12;;;;;;;7.66;50.70;97414.09;4487883;32;20084;-78
2022/01/10 06:02:03;;;;;;;34.70;16.62;;;;;;;7.01;52.55;97409.00;4487930;32;20136;-78
2022/01/10 06:04:31;;;;;;;40.80;17.77;;;;;;;5.75;57.74;97418.66;4487912;32;20117;-78
2022/01/10 06:06:58;;;;;;;38.80;17.05;;;;;;;6.65;55.17;97418.03;4473879;32;20084;-78
2022/01/10 06:09:24;;;;;;;39.45;18.17;;;;;;;6.49;55.78;97414.38;4487592;32;20160;-78
2022/01/10 06:11:51;;;;;;;38.25;17.52;;;;;;;7.34;53.52;97407.72;4488237;32;20159;-78
2022/01/10 06:14:18;;;;;;;37.85;17.05;;;;;;;4.50;63.03;97417.41;4488109;32;20168;-78
2022/01/10 06:16:45;;;;;;;41.83;16.10;;;;;;;4.14;66.92;97419.25;4488708;32;20179;-78
2022/01/10 06:19:12;;;;;;;43.33;16.67;;;;;;;3.24;70.37;97419.00;4488124;32;20132;-78
2022/01/10 06:21:39;;;;;;;38.95;16.10;;;;;;;3.22;69.87;97414.84;4489717;32;20099;-78
2022/01/10 06:24:06;;;;;;;38.63;16.60;;;;;;;3.94;68.43;97416.44;4488367;31;20100;-78
2022/01/10 06:26:34;;;;;;;41.13;17.02;;;;;;;3.41;70.30;97418.63;4474552;32;20107;-78
2022/01/10 06:29:00;;;;;;;37.75;16.23;;;;;;;4.74;66.06;97420.97;4487978;32;20171;-78
2022/01/10 06:31:27;;;;;;;42.38;17.00;;;;;;;5.29;63.18;97428.69;4488505;32;20110;-78
2022/01/10 06:33:54;;;;;;;42.88;18.17;;;;;;;3.82;68.60;97426.94;4488667;32;20162;-78
2022/01/10 06:36:22;;;;;;;41.92;16.98;;;;;;;3.84;68.89;97428.59;4474483;32;20106;-78
2022/01/10 06:38:49;;;;;;;40.63;15.68;;;;;;;4.78;65.89;97437.03;4474714;32;20148;-78
2022/01/10 06:41:16;;;;;;;41.58;15.98;;;;;;;5.26;63.84;97432.19;4488809;32;20104;-78
2022/01/10 06:43:42;;;;;;;;;;;;;;;5.22;63.42;97438.28;4488633;32;20408;-78
2022/01/10 06:46:09;;;;;;;42.47;16.67;;;;;;;5.12;64.12;97436.91;4489123;32;19967;-78
2022/01/10 06:48:36;;;;;;;39.67;14.13;;;;;;;4.05;67.70;97434.84;4489038;32;20085;-78
2022/01/10 06:51:03;;;;;;;41.70;17.60;;;;;;;4.55;65.31;97433.44;4488852;32;20110;-78
2022/01/10 06:53:30;;;;;;;44.25;17.42;;;;;;;5.32;63.30;97439.69;4488279;32;20160;-78
2022/01/10 06:55:57;;;;;;;48.47;16.85;;;;;;;4.21;67.51;97445.47;4475242;32;20119;-78
2022/01/10 06:58:24;;;;;;;42.50;17.92;;;;;;;5.13;64.27;97452.19;4493682;32;20120;-79
2022/01/10 07:00:51;;;;;;;;;;;;;;;5.45;63.11;97443.50;4494203;32;20731;-79
2022/01/10 07:03:18;;;;;;;43.47;16.83;;;;;;;6.23;60.49;97451.16;4475810;32;20029;-79
2022/01/10 07:05:45;;;;;;;;;;;;;;;6.82;58.44;97453.31;4490286;32;20140;-80
2022/01/10 07:08:12;;;;;;;36.67;16.20;;;;;;;7.19;57.16;97459.62;4487465;32;19987;-82
2022/01/10 07:10:39;;;;;;;41.25;16.45;;;;;;;7.09;56.42;97459.12;4487802;32;20092;-79
2022/01/10 07:13:06;;;;;;;43.30;16.62;;;;;;;7.56;55.50;97459.03;4486356;32;20108;-79
2022/01/10 07:15:33;;;;;;;43.30;17.27;;;;;;;7.38;56.21;97464.88;4486835;32;20446;-79
2022/01/10 07:18:00;;;;;;;46.17;17.58;;;;;;;8.05;53.80;97467.28;4487002;32;20417;-81
2022/01/10 07:20:27;;;;;;;40.50;17.12;;;;;;;7.98;53.84;97471.00;4487523;32;20484;-82
2022/01/10 07:22:54;;;;;;;42.72;15.90;;;;;;;8.42;52.67;97476.88;4472829;32;20104;-80
2022/01/10 07:25:21;;;;;;;42.75;17.05;;;;;;;8.72;51.04;97460.97;4487019;32;20084;-81
2022/01/10 07:27:48;;;;;;;36.88;15.75;;;;;;;9.18;49.79;97480.34;4487183;32;20752;-79
2022/01/10 07:30:15;;;;;;;40.58;16.98;;;;;;;9.22;50.02;97484.44;4487670;32;20131;-84
2022/01/10 07:32:42;;;;;;;39.60;17.00;;;;;;;9.33;49.24;97491.66;4487932;32;20180;-82
2022/01/10 07:35:10;;;;;;;43.47;17.65;;;;;;;9.11;49.96;97499.53;4471345;32;20107;-77
2022/01/10 07:37:38;;;;;;;38.80;17.92;;;;;;;7.99;52.49;97490.66;4484573;32;20136;-77
2022/01/10 07:40:05;;;;;;;39.83;16.42;;;;;;;9.43;48.98;97493.72;4469403;32;20160;-77
2022/01/10 07:42:32;;;;;;;45.72;17.62;;;;;;;9.50;47.99;97505.41;4470160;32;20115;-76
2022/01/10 07:44:59;;;;;;;;;;;;;;;8.97;49.16;97501.00;4484622;32;20092;-76
2022/01/10 07:47:28;;;;;;;38.88;15.13;;;;;;;9.18;48.98;97506.06;4470742;32;19968;-76
2022/01/10 07:49:57;;;;;;;38.03;18.05;;;;;;;8.88;49.30;97506.53;4485486;32;20164;-77
2022/01/10 07:52:26;;;;;;;38.42;17.00;;;;;;;9.45;48.67;97516.81;4485468;32;20185;-76
2022/01/10 07:54:53;;;;;;;37.35;15.85;;;;;;;9.41;49.04;97516.16;4485292;32;20088;-76
2022/01/10 07:57:20;;;;;;;36.90;15.45;;;;;;;9.69;48.45;97520.84;4486317;32;20089;-76
2022/01/10 07:59:47;;;;;;;37.47;16.08;;;;;;;9.85;48.24;97523.50;4485878;32;20148;-77
2022/01/10 08:02:16;;;;;;;33.30;13.98;;;;;;;9.98;48.22;97523.75;4486413;32;20175;-77
2022/01/10 08:04:43;;;;;;;33.58;14.68;;;;;;;9.93;47.34;97523.16;4459011;32;20107;-77
2022/01/10 08:07:10;;;;;;;36.40;15.68;;;;;;;8.32;51.80;97530.38;4485637;32;20179;-76
2022/01/10 08:09:37;;;;;;;31.83;13.48;;;;;;;8.73;50.14;97538.09;4486299;32;20097;-77
2022/01/10 08:12:05;;;;;;;30.58;12.32;;;;;;;8.62;51.22;97535.16;4487754;32;20132;-77
2022/01/10 08:14:32;;;;;;;32.13;12.65;;;;;;;9.06;50.46;97537.53;4472542;32;20152;-77
2022/01/10 08:17:00;;;;;;;33.58;14.25;;;;;;;7.08;57.31;97547.25;4486680;32;20129;-76
2022/01/10 08:19:30;;;;;;;34.03;13.65;;;;;;;5.95;61.58;97548.56;4486135;32;20148;-76
2022/01/10 08:21:58;;;;;;;31.90;13.65;;;;;;;6.07;61.42;97544.81;4486427;32;20156;-77
2022/01/10 08:24:25;;;;;;;29.83;11.80;;;;;;;5.05;67.12;97545.34;4487599;32;20084;-76
2022/01/10 08:26:53;;;;;;;27.35;10.20;;;;;;;3.40;73.08;97539.34;4486666;32;20233;-76
2022/01/10 08:29:20;;;;;;;33.78;12.80;;;;;;;3.13;74.68;97543.34;4472598;32;20160;-76
2022/01/10 08:31:47;;;;;;;32.45;13.50;;;;;;;3.08;75.95;97552.78;4486224;32;20475;-76
2022/01/10 08:34:14;;;;;;;33.08;12.80;;;;;;;4.00;73.24;97549.81;4486423;32;20088;-76
2022/01/10 08:36:41;;;;;;;29.70;12.35;;;;;;;5.45;66.88;97557.81;4485669;32;20092;-76
2022/01/10 08:39:08;;;;;;;;;;;;;;;4.66;69.64;97553.22;4486009;32;20395;-75
2022/01/10 08:41:36;;;;;;;34.13;13.80;;;;;;;5.59;65.37;97559.94;4471815;32;20051;-76
2022/01/10 08:44:04;;;;;;;37.15;12.52;;;;;;;5.57;66.17;97556.59;4461562;32;20105;-77
2022/01/10 08:46:31;;;;;;;35.33;13.45;;;;;;;5.81;64.48;97555.84;4488329;32;20107;-76
2022/01/10 08:48:58;;;;;;;31.73;13.15;;;;;;;6.85;62.08;97562.63;4488031;32;20096;-76
2022/01/10 08:51:27;;;;;;;34.65;15.52;;;;;;;7.22;60.29;97567.25;4488297;32;20168;-77
2022/01/10 08:53:55;;;;;;;36.28;15.02;;;;;;;5.92;63.62;97570.88;4490084;32;20140;-77
2022/01/10 08:56:22;;;;;;;32.92;14.07;;;;;;;7.12;60.12;97589.84;4489289;32;20156;-76
2022/01/10 08:58:48;;;;;;;;;;;;;;;6.80;60.23;97593.53;4488523;32;20563;-76
2022/01/10 09:01:16;;;;;;;35.78;15.20;;;;;;;7.07;59.33;97601.19;4489721;32;19979;-77
2022/01/10 09:03:43;;;;;;;36.10;14.57;;;;;;;7.72;57.44;97603.88;4488250;32;20411;-76
2022/01/10 09:06:09;;;;;;;32.95;14.55;;;;;;;8.67;54.55;97600.06;4489255;32;20127;-78
2022/01/10 09:08:40;;;;;;;35.95;14.65;;;;;;;9.26;52.11;97607.78;4488804;32;20156;-78
2022/01/10 09:11:08;;;;;;;36.78;15.27;;;;;;;9.98;49.30;97603.62;4489105;32;20168;-77
2022/01/10 09:13:35;;;;;;;34.38;14.00;;;;;;;9.88;50.04;97602.41;4488333;32;20100;-77
2022/01/10 09:16:02;;;;;;;;;;;;;;;9.73;49.93;97611.69;4488643;32;20435;-76
2022/01/10 09:18:29;;;;;;;32.50;14.07;;;;;;;9.16;50.99;97610.84;4488136;32;19979;-76
2022/01/10 09:20:56;;;;;;;30.27;13.27;;;;;;;9.90;49.82;97614.31;4473933;32;20267;-76
2022/01/10 09:23:24;;;;;;;32.05;13.82;;;;;;;9.24;51.54;97607.00;4488081;32;20637;-77
2022/01/10 09:25:51;;;;;;;32.53;12.52;;;;;;;9.39;51.08;97615.81;4488751;32;20126;-77
2022/01/10 09:28:19;;;;;;;28.62;12.80;;;;;;;8.31;54.05;97610.97;4488670;32;20140;-76
2022/01/10 09:30:47;;;;;;;32.42;12.90;;;;;;;6.99;58.89;97621.13;4489004;32;20105;-78
2022/01/10 09:33:14;;;;;;;32.88;13.20;;;;;;;6.97;59.64;97616.06;4488465;32;20095;-78
2022/01/10 09:35:43;;;;;;;33.05;12.82;;;;;;;6.45;62.03;97605.00;4490818;32;20072;-76
2022/01/10 09:38:11;;;;;;;34.60;11.77;;;;;;;4.83;67.96;97599.63;4487973;32;20164;-77
2022/01/10 09:40:38;;;;;;;30.17;11.60;;;;;;;3.32;75.58;97600.72;4487806;32;20088;-77
2022/01/10 09:43:18;;;;;;;27.35;9.55;;;;;;;2.84;78.06;97598.28;4475198;32;20084;-75
2022/01/10 09:45:45;;;;;;;32.00;10.65;;;;;;;2.51;81.04;97594.66;4487386;32;21034;-75
2022/01/10 09:48:12;;;;;;;42.13;14.65;;;;;;;2.08;83.59;97593.69;4460655;32;20160;-75
2022/01/10 09:50:39;;;;;;;;;;;;;;;1.60;87.35;97593.59;4488169;32;20096;-76
2022/01/10 09:53:07;;;;;;;36.72;12.35;;;;;;;1.99;86.45;97589.59;4487466;32;20374;-76
2022/01/10 09:55:34;;;;;;;34.85;12.68;;;;;;;1.97;85.34;97598.97;4487210;32;20132;-77
2022/01/10 09:58:03;;;;;;;39.60;13.82;;;;;;;2.19;85.16;97602.00;4487666;32;20093;-78
2022/01/10 10:00:31;;;;;;;42.13;14.07;;;;;;;2.32;84.49;97603.47;4488154;32;20108;-77
2022/01/10 10:02:58;;;;;;;45.70;15.82;;;;;;;3.43;80.17;97608.97;4488087;32;20143;-77
2022/01/10 10:05:26;;;;;;;44.08;15.60;;;;;;;2.82;81.35;97614.47;4473900;32;20076;-75
2022/01/10 10:07:53;;;;;;;30.17;10.40;;;;;;;2.61;83.12;97618.25;4487414;32;20132;-75
2022/01/10 10:10:21;;;;;;;42.88;15.48;;;;;;;2.13;85.92;97619.94;4488112;32;20184;-76
2022/01/10 10:12:50;;;;;;;48.70;16.42;;;;;;;2.73;83.05;97620.56;4489180;32;20119;-77
2022/01/10 10:15:21;;;;;;;45.67;16.12;;;;;;;2.47;84.18;97608.31;4473817;32;20117;-76
2022/01/10 10:17:48;;;;;;;48.17;17.05;;;;;;;2.89;82.65;97606.69;4487846;32;20483;-75
2022/01/10 10:20:16;;;;;;;;;;;;;;;3.29;80.80;97616.06;4473854;32;20139;-76
2022/01/10 10:23:04;;;;;;;39.53;14.05;;;;;;;4.20;77.24;97608.06;4487440;32;20322;-76
2022/01/10 10:25:33;;;;;;;44.42;15.35;;;;;;;3.89;76.76;97607.13;4457801;32;20167;-76
2022/01/10 10:28:01;;;;;;;34.33;11.02;;;;;;;4.28;73.89;97602.78;4471227;32;20131;-76
2022/01/10 10:30:30;;;;;;;31.67;10.88;;;;;;;3.92;74.33;97607.03;4471808;32;20097;-77
2022/01/10 10:33:17;;;;;;;37.47;11.57;;;;;;;2.84;78.37;97615.28;4471850;32;20153;-75
2022/01/10 10:35:54;;;;;;;32.60;11.45;;;;;;;3.04;78.39;97622.53;4471471;32;20115;-76
2022/01/10 10:38:21;;;;;;;32.97;12.37;;;;;;;3.19;76.52;97617.16;4471786;32;20108;-75
2022/01/10 10:40:48;;;;;;;30.52;11.32;;;;;;;2.39;80.14;97622.87;4471737;32;20132;-76
2022/01/10 10:43:14;;;;;;;;;;;;;;;2.01;82.25;97620.94;4472553;32;20149;-76
2022/01/10 10:45:43;;;;;;;23.98;9.30;;;;;;;2.27;82.15;97630.72;4475548;32;19952;-76
2022/01/10 10:48:11;;;;;;;34.22;12.20;;;;;;;1.91;83.74;97634.66;4473096;32;20108;-76
2022/01/10 10:50:41;;;;;;;42.50;12.35;;;;;;;1.57;85.41;97626.69;4474815;32;20123;-75
2022/01/10 10:53:10;;;;;;;30.92;10.52;;;;;;;2.17;84.07;97629.19;4472562;32;20151;-76
2022/01/10 10:55:41;;;;;;;30.77;12.35;;;;;;;1.95;84.55;97623.59;4472179;32;20494;-74
2022/01/10 10:58:09;;;;;;;34.75;12.15;;;;;;;2.00;84.37;97614.16;4472013;32;20132;-76
2022/01/10 11:00:36;;;;;;;28.12;11.65;;;;;;;2.09;83.57;97616.56;4471764;32;20491;-75
2022/01/10 11:03:04;;;;;;;34.78;12.15;;;;;;;1.69;85.24;97601.06;4471918;32;20138;-75
2022/01/10 11:05:33;;;;;;;26.37;10.43;;;;;;;1.24;87.43;97622.87;4475023;32;20081;-76
2022/01/10 11:08:01;;;;;;;32.00;13.38;;;;;;;1.49;86.10;97615.75;4474132;32;20137;-75
2022/01/10 11:10:28;;;;;;;28.20;11.35;;;;;;;1.49;86.35;97629.34;4473928;32;20276;-75
2022/01/10 11:12:57;;;;;;;28.25;11.63;;;;;;;1.36;87.52;97632.88;4470835;32;20148;-76
2022/01/10 11:15:25;;;;;;;37.95;13.07;;;;;;;1.99;83.61;97643.88;4470862;32;20140;-76
2022/01/10 11:18:10;;;;;;;29.17;11.50;;;;;;;1.95;83.80;97638.87;4470748;32;20165;-77
2022/01/10 11:20:45;;;;;;;31.90;10.63;;;;;;;1.49;84.73;97638.66;4472474;32;20096;-76
2022/01/10 11:23:31;;;;;;;40.03;13.55;;;;;;;1.65;84.56;97642.69;4472694;32;20148;-76
2022/01/10 11:25:58;;;;;;;35.08;12.25;;;;;;;1.40;85.20;97642.19;4487202;32;20148;-76
2022/01/10 11:28:25;;;;;;;;;;;;;;;1.20;86.09;97644.97;4473646;32;20118;-76
2022/01/10 11:30:59;;;;;;;29.23;11.48;;;;;;;1.03;87.95;97634.12;4473011;32;20051;-76
2022/01/10 11:33:29;;;;;;;27.50;10.25;;;;;;;1.37;86.17;97637.94;4487460;32;20081;-77
2022/01/10 11:35:58;;;;;;;34.15;14.00;;;;;;;1.30;88.16;97636.38;4487543;32;20072;-76
2022/01/10 11:38:31;;;;;;;37.83;14.02;;;;;;;1.11;87.27;97630.66;4486873;32;20763;-76
2022/01/10 11:41:04;;;;;;;29.85;11.27;;;;;;;1.31;87.14;97639.75;4487103;32;20165;-76
2022/01/10 11:43:42;;;;;;;31.92;11.30;;;;;;;1.37;84.39;97642.19;4487389;32;20107;-77